Selected Arizona METAR Reports


Metar stations are listed by distance from this station - near to far. The 'official' reporting station for the Greater Phoenix area is KPHX - Phoenix/Sky Harbor.

KDVT - Phoenix/Deer Valley, Arizona, USA
Distance from station: NW 4mi, 7km
Updated: Sun 25 Jun 2017 0753 MST
Clear
Clear
 Wind from SSE
Wind: SSE 9 mph , 15 km/h
Temperature: 99°F , 37°C
Dew Point: 52°F , 11°C
Humidity: 21%
Barometer: 29.88 inHg , 1011.9 hPa
Clouds: Clear
Visibility: 10 miles , 16 km
2017/06/25 14:53 KDVT 251453Z 16008KT 10SM CLR 37/11 A2988 RMK AO2 SLP087 T03670111 51024
KSDL - Scottsdale, Arizona, USA
Distance from station: ESE 6mi, 9km
Updated: Sun 25 Jun 2017 0753 MST
Clear
Clear
 Wind from S
Wind: S 5 mph , 7 km/h
Temperature: 97°F , 36°C
Dew Point: 54°F , 12°C
Humidity: 23%
Barometer: 29.90 inHg , 1012.5 hPa
Clouds: Clear
Visibility: 10 miles , 16 km
2017/06/25 14:53 KSDL 251453Z 19004KT 10SM CLR 36/12 A2990 RMK AO2 SLP093 T03560117 53021
 
KPHX - Phoenix/Sky Harbor, Arizona, USA
Distance from station: S 15mi, 24km
Updated: Sun 25 Jun 2017 0751 MST
Partly cloudy
Partly cloudy
 Wind from SSE
Wind: SSE 10 mph , 17 km/h
Temperature: 97°F , 36°C
Dew Point: 55°F , 13°C
Humidity: 25%
Barometer: 29.86 inHg , 1011.2 hPa
Clouds: Partly cloudy
Visibility: 10 miles , 16 km
Cloud details: Partly cloudy 17000 ft
Partly cloudy 23000 ft
2017/06/25 14:51 KPHX 251451Z 15009KT 10SM SCT170 SCT230 36/13 A2986 RMK AO2 SLP087 T03610128 51024
KGEU - Glendale, Arizona, USA
Distance from station: WSW 19mi, 30km
Updated: Sun 25 Jun 2017 0747 MST
Partly cloudy
Partly cloudy
 Wind from SE
Wind: SE 8 mph , 13 km/h
Temperature: 97°F , 36°C
Dew Point: 55°F , 13°C
Humidity: 25%
Barometer: 29.88 inHg , 1011.9 hPa
Clouds: Partly cloudy
Visibility: 10 miles , 16 km
Cloud details: Partly cloudy 18000 ft
Partly cloudy 25000 ft
2017/06/25 14:47 KGEU 251447Z 13007KT 10SM SCT180 SCT250 36/13 A2988
 
KFFZ - Mesa/Falcon Field, Arizona, USA
Distance from station: SE 21mi, 33km
Updated: Sun 25 Jun 2017 0755 MST
Partly cloudy
Partly cloudy
 Wind from ESE
Wind: ESE 16 mph , 26 km/h, Gust: 23 mph , 37 km/h
Temperature: 100°F , 38°C
Dew Point: 55°F , 13°C
Humidity: 22%
Barometer: 29.89 inHg , 1012.2 hPa
Clouds: Partly cloudy
Visibility: 30 miles , 48 km
Cloud details: Few Clouds 17000 ft
Partly cloudy 23000 ft
2017/06/25 14:55 KFFZ 251455Z 11014G20KT 30SM FEW170 SCT230 38/13 A2989
KLUF - Luke AFB/Glendale, Arizona, USA
Distance from station: WSW 23mi, 36km
Updated: Sun 25 Jun 2017 0758 MST
Clear
Clear
 Wind from ESE
Wind: ESE 7 mph , 11 km/h
Temperature: 97°F , 36°C
Dew Point: 55°F , 13°C
Humidity: 25%
Barometer: 29.86 inHg , 1011.2 hPa
Clouds: Clear
2017/06/25 14:58 KLUF 251458Z AUTO 12006KT M M CLR 36/13 A2986 RMK AO2 SLP093 T03610125 52025 $
 
KGYR - Goodyear Municipal, Arizona, USA
Distance from station: SW 26mi, 42km
Updated: Sun 25 Jun 2017 0747 MST
Partly cloudy
Partly cloudy
 Wind from ESE
Wind: ESE 9 mph , 15 km/h
Temperature: 97°F , 36°C
Dew Point: 55°F , 13°C
Humidity: 25%
Barometer: 29.86 inHg , 1011.2 hPa
Clouds: Partly cloudy
Visibility: M 10 miles , 16 km
Cloud details: Few Clouds 10000 ft
Partly cloudy 18000 ft
2017/06/25 14:47 KGYR 251447Z 12008KT 10SM FEW100 SCT180 36/13 A2986
KIWA - Chandler/Mesa, Arizona, USA
Distance from station: SE 32mi, 51km
Updated: Sun 25 Jun 2017 0747 MST
Partly cloudy
Partly cloudy
 Wind from ESE
Wind: ESE 16 mph , 26 km/h
Temperature: 97°F , 36°C
Dew Point: 55°F , 13°C
Humidity: 25%
Barometer: 29.90 inHg , 1012.5 hPa
Clouds: Partly cloudy
Visibility: 20 miles , 32 km
Cloud details: Partly cloudy 15000 ft
2017/06/25 14:47 KIWA 251447Z 12014KT 20SM SCT150 36/13 A2990
 
KBXK - Buckeye, Arizona, USA
Distance from station: WSW 42mi, 68km
Updated: Sun 25 Jun 2017 0815 MST
Clear
Clear
 Wind from SE
Wind: SE 9 mph , 15 km/h
Temperature: 97°F , 36°C
Dew Point: 50°F , 10°C
Humidity: 20%
Barometer: 29.87 inHg , 1011.5 hPa
Clouds: Clear
Visibility: 10 miles , 16 km
2017/06/25 15:15 KBXK 251515Z AUTO 13008KT 10SM CLR 36/10 A2987 RMK AO1
KCGZ - Casa Grande, Arizona, USA
Distance from station: SSE 50mi, 81km
Updated: Sun 25 Jun 2017 0756 MST
Clear
Clear
 Wind from E
Wind: E 10 mph , 17 km/h
Temperature: 97°F , 36°C
Dew Point: 57°F , 14°C
Humidity: 27%
Barometer: 29.91 inHg , 1012.9 hPa
Clouds: Clear
Visibility: 10 miles , 16 km
2017/06/25 14:56 KCGZ 251456Z AUTO 09009KT 10SM CLR 36/14 A2991 RMK AO2 SLPNO T03610139 51024 $
 
KPAN - Payson, Arizona, USA
Distance from station: NE 57mi, 91km
Updated: Sun 25 Jun 2017 0815 MST
Clear
Clear
 Wind from varies
Wind: varies 6 mph , 9 km/h
Temperature: 81°F , 27°C
Dew Point: 48°F , 9°C
Humidity: 32%
Barometer: 30.27 inHg , 1025.1 hPa
Clouds: Clear
Visibility: 10 miles , 16 km
2017/06/25 15:15 KPAN 251515Z AUTO VRB05KT 10SM CLR 27/09 A3027 RMK AO2
KGBN - Gila Bend (aaf), Arizona, USA
Distance from station: SW 68mi, 109km
Updated: Wed 13 Feb 2013 1755 MST
NOT Current
Clear
Clear
 Wind from NNE
Wind: NNE 6 mph , 9 km/h
Temperature: 61°F , 16°C
Dew Point: 19°F , -7°C
Humidity: 20%
Barometer: 30.12 inHg , 1020 hPa
Clouds: Clear
Visibility: 90 miles , 144 km
2013/02/14 00:55 KGBN 140055Z 02005KT 90SM SKC 16/M07 A3012 RMK SLP204
 
KPRC - Prescott, Arizona, USA
Distance from station: NNW 73mi, 118km
Updated: Sun 25 Jun 2017 0753 MST
Clear
Clear
 Wind from ESE
Wind: ESE 8 mph , 13 km/h
Temperature: 86°F , 30°C
Dew Point: 37°F , 3°C
Humidity: 18%
Barometer: 30.19 inHg , 1022.4 hPa
Clouds: Clear
Visibility: 10 miles , 16 km
2017/06/25 14:53 KPRC 251453Z 12007KT 10SM CLR 30/03 A3019 RMK AO2 SLP116 T03000033 51020 $
KSEZ - Sedona, Arizona, USA
Distance from station: N 84mi, 135km
Updated: Sun 25 Jun 2017 0815 MST
Clear
Clear
 Wind from SE
Wind: SE 12 mph , 19 km/h
Temperature: 91°F , 33°C
Dew Point: 39°F , 4°C
Humidity: 16%
Barometer: 30.18 inHg , 1022 hPa
Clouds: Clear
Visibility: 10 miles , 16 km
2017/06/25 15:15 KSEZ 251515Z AUTO 14010KT 10SM CLR 33/04 A3018 RMK AO2
 
KFLG - Flagstaff, Arizona, USA
Distance from station: N 105mi, 168km
Updated: Sun 25 Jun 2017 0757 MST
Few Clouds
Few Clouds
 Wind from SSW
Wind: SSW 6 mph , 9 km/h
Temperature: 73°F , 23°C
Dew Point: 36°F , 2°C
Humidity: 25%
Barometer: 30.35 inHg , 1027.8 hPa
Clouds: Few Clouds
Visibility: 10 miles , 16 km
Cloud details: Few Clouds 11000 ft
2017/06/25 14:57 KFLG 251457Z 20005KT 10SM FEW110 23/02 A3035 RMK AO2 WSHFT 1357 SLP146 T02280022 50015
KRYN - Tucson/Ryan Field, Arizona, USA
Distance from station: SSE 114mi, 184km
Updated: Sat 24 Jun 2017 1646 MST
NOT Current
Clear
Clear
 Wind from NW
Wind: NW 9 mph , 15 km/h
Temperature: 111°F , 44°C
Dew Point: 32°F , 0°C
Humidity: 6%
Barometer: 29.78 inHg , 1008.5 hPa
Clouds: Clear
Visibility: 10 miles , 16 km
2017/06/24 23:46 KRYN 242346Z 31008KT 10SM CLR 44/00 A2978
 
KCMR - Williams Clark, Arizona, USA
Distance from station: N 115mi, 185km
Updated: Mon 19 Jun 2017 2355 MST
NOT Current
Clear
Clear
 Wind from SSE
Wind: SSE 9 mph , 15 km/h
Temperature: 61°F , 16°C
Dew Point: 39°F , 4°C
Humidity: 45%
Barometer: 30.30 inHg , 1026.1 hPa
Clouds: Clear
Visibility: 10 miles , 16 km
2017/06/20 06:55 KCMR 200655Z AUTO 16008KT 10SM CLR 16/04 A3030 RMK AO2
KINW - Winslow, Arizona, USA
Distance from station: NE 121mi, 194km
Updated: Sun 25 Jun 2017 0806 MST
Clear
Clear
 Wind from SW
Wind: SW 22 mph , 35 km/h, Gust: 29 mph , 46 km/h
Temperature: 90°F , 32°C
Dew Point: 37°F , 3°C
Humidity: 16%
Barometer: 30.18 inHg , 1022 hPa
Clouds: Clear
Visibility: 10 miles , 16 km
2017/06/25 15:06 KINW 251506Z AUTO 23019G25KT 10SM CLR 32/03 A3018 RMK AO2 WSHFT 1446 T03220033
 
KTUS - Tucson, Arizona, USA
Distance from station: SSE 121mi, 195km
Updated: Sun 25 Jun 2017 0753 MST
Clear
Clear
 Wind from SE
Wind: SE 12 mph , 19 km/h
Temperature: 91°F , 33°C
Dew Point: 54°F , 12°C
Humidity: 28%
Barometer: 30.04 inHg , 1017.3 hPa
Clouds: Clear
Visibility: 10 miles , 16 km
2017/06/25 14:53 KTUS 251453Z 13010KT 10SM CLR 33/12 A3004 RMK AO2 SLP110 T03330117 53019
KDMA - Davis AFB/Tucson, Arizona, USA
Distance from station: SE 122mi, 196km
Updated: Sun 25 Jun 2017 0758 MST
Few Clouds
Few Clouds
 Wind from SE
Wind: SE 15 mph , 24 km/h
Temperature: 90°F , 32°C
Dew Point: 52°F , 11°C
Humidity: 27%
Barometer: 30.02 inHg , 1016.6 hPa
Clouds: Few Clouds
Visibility: 10 miles , 16 km
Cloud details: Few Clouds 18000 ft
2017/06/25 14:58 KDMA 251458Z AUTO 14013KT 10SM FEW180 32/11 A3002 RMK AO2 SLP112 T03220114 52019 CHINO RWY12 $
 
KSOW - Show Low Municipal, Arizona, USA
Distance from station: ENE 123mi, 198km
Updated: Sun 25 Jun 2017 0815 MST
Clear
Clear
 Wind from SSW
Wind: SSW 15 mph , 24 km/h
Temperature: 70°F , 21°C
Dew Point: 46°F , 8°C
Humidity: 43%
Barometer: 30.33 inHg , 1027.1 hPa
Clouds: Clear
Visibility: 10 miles , 16 km
2017/06/25 15:15 KSOW 251515Z AUTO 20013KT 10SM CLR 21/08 A3033 RMK AO2
KSAD - Safford, Arizona, USA
Distance from station: ESE 148mi, 238km
Updated: Sun 25 Jun 2017 0751 MST
Clear
Clear
 Wind from E
Wind: E 10 mph , 17 km/h
Temperature: 84°F , 29°C
Dew Point: 54°F , 12°C
Humidity: 35%
Barometer: 30.12 inHg , 1020 hPa
Clouds: Clear
Visibility: 10 miles , 16 km
2017/06/25 14:51 KSAD 251451Z AUTO 09009KT 10SM CLR 29/12 A3012 RMK AO2 SLP135 T02890122 51014